KOMK/OMK METAR and TAF weather

Enter ICAO airport designator
Station Type Date Time Source
KOMK METAR 2019/04/18 13:53 UTC NOAA

KOMK 181353Z AUTO 11003KT 10SM CLR 10/04 A3022 RMK AO2 SLP233 T01000044


Station Type Date Time Source
KOMK Decoded METAR 2019/04/18 13:53 UTC NOAA

OMAK AIRPORT, WA, United States (KOMK) 48-28N 119-31W 395M
Apr 18, 2019 - 09:53 AM EDT / 2019.04.18 1353 UTC
Wind: from the ESE (110 degrees) at 3 MPH (3 KT):0
Visibility: 10 mile(s):0
Sky conditions: clear
Temperature: 50.0 F (10.0 C)
Dew Point: 39.9 F (4.4 C)
Relative Humidity: 68%
Pressure (altimeter): 30.22 in. Hg (1023 hPa)
ob: KOMK 181353Z AUTO 11003KT 10SM CLR 10/04 A3022 RMK AO2 SLP233 T01000044
cycle: 14

Station Type Date Time Source
KOMK TAF UTC NOAA

Error!

Example: see airport list